Terminal Aerodrome Forecast
Issued by NWS

Home | Current Version | Previous Version | Text Only | Print | Product List | Glossary On
Versions: 1 2 3 4 5 6 7 8 9 10 11 12 13 14 15 16 17 18 19 20 21 22 23 24 25 26 27 28 29 30 31 32
000
FTUS43 KDLH 232340
TAFHIB
TAF
KHIB 232340Z 2400/2424 14004KT 3SM -FZRA OVC025
     FM240200 VRB03KT 3SM -FZRA OVC008
     FM241100 35007KT P6SM OVC007
     FM241500 36008KT P6SM OVC015
     FM241800 01008KT P6SM SCT030=

USA.gov is the U.S. government's official web portal to all federal, state and local government web resources and services.